Annandale, Minnesota
Current Conditions -  °F | °C
As of 8:15 AM on Saturday 20 Dec 2014 (Local Time) from KMGG Reporting Station
Haze Haze  
Wind Chill: 26°   Ceiling: 400
Heat Index: 31°   Visibility: 3mi
Dew Point: 31°   Wind: 6mph
Humidity: 99%   Direction: 160°SSE
Pressure: 30.11"   Gusts: NA
Location:  45.26°N, 94.12°W
Report Text: KMGG 201415Z AUTO 16005KT 3SM BR OVC004 00/00 A3011 RMK AO2 T10031005
Loading
Personal Weather Stations






























Interactive Weather Map New forecast layout! Learn more

10-Day Weather Forecast

Advertisements
Track Severe Weather on mobile